Time;durP1;ratioP1;P1;durP2;ratioP2;P2;SDS_P1;SDS_P2;PMS_P1;PMS_P2;Temp;Humidity;BMP_temperature;BMP_pressure;BME280_temperature;BME280_humidity;BME280_pressure;Samples;Min_cycle;Max_cycle;Signal;HPM_P1;HPM_P2
2021/08/30 00:01:11;;;;;;;10.57;6.93;;;14.50;98.20;;;;;;5032969;28;20393;-68
2021/08/30 00:03:37;;;;;;;8.90;6.53;;;14.40;98.20;;;;;;5032904;28;20040;-65
2021/08/30 00:06:03;;;;;;;8.18;6.22;;;14.50;98.20;;;;;;5032129;28;20032;-70
2021/08/30 00:08:29;;;;;;;9.00;7.13;;;14.50;98.20;;;;;;5032773;28;20025;-71
2021/08/30 00:10:55;;;;;;;8.93;7.07;;;14.50;98.20;;;;;;5032902;28;20025;-65
2021/08/30 00:13:20;;;;;;;8.93;7.05;;;14.50;98.20;;;;;;5032531;28;20483;-65
2021/08/30 00:15:46;;;;;;;8.38;7.18;;;14.50;98.10;;;;;;5031928;28;20105;-65
2021/08/30 00:18:11;;;;;;;8.00;6.50;;;14.40;98.10;;;;;;5032239;28;20049;-70
2021/08/30 00:20:37;;;;;;;8.15;6.32;;;14.40;98.10;;;;;;5032561;28;20029;-65
2021/08/30 00:23:03;;;;;;;8.82;6.72;;;14.40;98.10;;;;;;5032645;28;20132;-65
2021/08/30 00:25:28;;;;;;;8.75;6.72;;;14.40;98.10;;;;;;5031560;28;20033;-65
2021/08/30 00:27:54;;;;;;;8.60;6.53;;;14.40;98.20;;;;;;5032068;28;20396;-68
2021/08/30 00:30:20;;;;;;;8.07;6.47;;;14.40;98.10;;;;;;5032144;28;20029;-73
2021/08/30 00:32:45;;;;;;;7.95;6.28;;;14.40;98.20;;;;;;5032397;28;20039;-65
2021/08/30 00:35:11;;;;;;;7.55;6.50;;;14.40;98.20;;;;;;5031687;28;20034;-65
2021/08/30 00:37:37;;;;;;;7.60;6.15;;;14.40;98.10;;;;;;5031945;28;20075;-65
2021/08/30 00:40:05;;;;;;;6.93;6.13;;;14.30;98.10;;;;;;5032361;28;20072;-66
2021/08/30 00:42:31;;;;;;;8.60;6.63;;;14.40;98.20;;;;;;5031800;28;20025;-65
2021/08/30 00:44:57;;;;;;;9.65;7.47;;;14.30;98.20;;;;;;5030233;28;20029;-67
2021/08/30 00:47:23;;;;;;;8.23;6.63;;;14.40;98.20;;;;;;5032896;28;20430;-69
2021/08/30 00:49:50;;;;;;;9.27;7.55;;;14.40;98.20;;;;;;5030891;28;20108;-70
2021/08/30 00:52:16;;;;;;;10.18;7.78;;;14.40;98.30;;;;;;5031892;28;20026;-65
2021/08/30 00:54:42;;;;;;;10.02;7.68;;;14.40;98.30;;;;;;5031188;28;20108;-65
2021/08/30 00:57:09;;;;;;;9.77;8.30;;;14.40;98.30;;;;;;5031534;28;20112;-65
2021/08/30 00:59:38;;;;;;;11.85;8.23;;;14.40;98.30;;;;;;5031707;28;20018;-71
2021/08/30 01:02:05;;;;;;;10.95;8.23;;;14.40;98.20;;;;;;5031838;28;20032;-65
2021/08/30 01:04:30;;;;;;;10.48;8.07;;;14.40;98.20;;;;;;5031484;28;20517;-73
2021/08/30 01:07:23;;;;;;;11.70;8.57;;;14.40;98.20;;;;;;5031280;28;20029;-64
2021/08/30 01:10:12;;;;;;;10.95;8.20;;;14.40;98.30;;;;;;5000477;28;20064;-65
2021/08/30 01:12:52;;;;;;;10.05;7.70;;;14.40;98.40;;;;;;5031702;28;20034;-65
2021/08/30 01:15:23;;;;;;;9.90;7.68;;;14.40;98.40;;;;;;5030452;28;20018;-67
2021/08/30 01:17:49;;;;;;;9.65;7.15;;;14.40;98.40;;;;;;5031290;28;20036;-65
2021/08/30 01:20:41;;;;;;;10.88;8.23;;;14.40;98.30;;;;;;5031629;28;20025;-68
2021/08/30 01:23:08;;;;;;;11.55;8.43;;;14.40;98.40;;;;;;5031415;28;20025;-65
2021/08/30 01:25:34;;;;;;;11.07;7.75;;;14.30;98.40;;;;;;5030619;28;20032;-67
2021/08/30 01:28:00;;;;;;;10.85;7.82;;;14.40;98.40;;;;;;5031196;28;20401;-66
2021/08/30 01:30:30;;;;;;;10.43;8.07;;;14.40;98.40;;;;;;5031199;28;20060;-66
2021/08/30 01:33:00;;;;;;;12.38;8.45;;;14.40;98.40;;;;;;5031254;28;20024;-69
2021/08/30 01:35:27;;;;;;;16.08;8.68;;;14.40;98.40;;;;;;5010897;28;20025;-68
2021/08/30 01:37:56;;;;;;;11.43;7.65;;;14.40;98.50;;;;;;5039233;28;20029;-66
2021/08/30 01:40:24;;;;;;;13.95;8.95;;;14.40;98.40;;;;;;5018213;28;20037;-72
2021/08/30 01:42:52;;;;;;;10.23;8.07;;;14.40;98.50;;;;;;5030981;28;20018;-65
2021/08/30 01:45:24;;;;;;;9.93;7.53;;;14.40;98.40;;;;;;5045255;22;20035;-70
2021/08/30 01:47:51;;;;;;;;;;;14.40;98.50;;;;;;5036791;28;20029;-69
2021/08/30 01:50:20;;;;;;;9.13;6.90;;;14.40;98.40;;;;;;5040626;28;19913;-71
2021/08/30 01:52:46;;;;;;;8.60;6.45;;;14.40;98.30;;;;;;5031181;28;20576;-71
2021/08/30 01:55:30;;;;;;;7.93;6.40;;;14.40;98.40;;;;;;5030227;28;20040;-70
2021/08/30 02:00:43;;;;;;;9.50;6.15;;;14.40;98.40;;;;;;5013391;28;20036;-69
2021/08/30 02:03:19;;;;;;;6.72;5.53;;;14.40;98.40;;;;;;5011609;28;20140;-69
2021/08/30 02:05:55;;;;;;;7.43;5.38;;;14.30;98.40;;;;;;5029693;28;20021;-70
2021/08/30 02:08:24;;;;;;;6.22;5.57;;;14.40;98.50;;;;;;5030819;28;20060;-68
2021/08/30 02:10:56;;;;;;;7.07;5.00;;;14.30;98.40;;;;;;5026574;28;20104;-71
2021/08/30 02:13:25;;;;;;;3.53;3.03;;;14.40;98.50;;;;;;5023552;28;20393;-67
2021/08/30 02:15:52;;;;;;;3.47;2.58;;;14.40;98.50;;;;;;5049821;28;20021;-68
2021/08/30 02:18:46;;;;;;;3.85;2.47;;;14.40;98.50;;;;;;5031924;28;20048;-68
2021/08/30 02:21:18;;;;;;;2.55;2.33;;;14.30;98.50;;;;;;5045818;28;20019;-68
2021/08/30 02:23:53;;;;;;;;;;;14.40;98.50;;;;;;4995323;28;20033;-67
2021/08/30 02:26:24;;;;;;;3.92;2.88;;;14.30;98.40;;;;;;5029967;28;19951;-71
2021/08/30 02:28:51;;;;;;;3.70;3.13;;;14.30;98.40;;;;;;5010428;28;20612;-68
2021/08/30 02:31:18;;;;;;;3.33;2.90;;;14.30;98.40;;;;;;5010601;28;20033;-67
2021/08/30 02:33:44;;;;;;;3.70;3.22;;;14.30;98.50;;;;;;5010726;28;20029;-69
2021/08/30 02:36:12;;;;;;;4.47;4.07;;;14.30;98.50;;;;;;5010201;28;20021;-68
2021/08/30 02:38:39;;;;;;;6.65;5.32;;;14.30;98.60;;;;;;5010369;28;20032;-71
2021/08/30 02:41:07;;;;;;;6.75;5.75;;;14.30;98.60;;;;;;5029634;28;20061;-72
2021/08/30 02:43:33;;;;;;;9.35;7.05;;;14.30;98.60;;;;;;5032612;28;20847;-68
2021/08/30 02:46:00;;;;;;;9.68;6.88;;;14.30;98.60;;;;;;5034564;28;20041;-71
2021/08/30 02:48:28;;;;;;;9.10;6.72;;;14.40;98.60;;;;;;5025144;28;20030;-72
2021/08/30 02:50:55;;;;;;;10.00;7.40;;;14.40;98.70;;;;;;5029770;28;20017;-68
2021/08/30 02:53:23;;;;;;;10.77;7.70;;;14.30;98.60;;;;;;5013600;28;20481;-68
2021/08/30 02:55:51;;;;;;;9.98;6.80;;;14.40;98.70;;;;;;5016081;28;20034;-67
2021/08/30 02:58:17;;;;;;;11.18;7.32;;;14.40;98.60;;;;;;5017349;28;20427;-67
2021/08/30 03:00:43;;;;;;;11.35;7.45;;;14.40;98.70;;;;;;5010475;28;20025;-67
2021/08/30 03:03:09;;;;;;;10.23;7.70;;;14.40;98.70;;;;;;5025350;28;20044;-67
2021/08/30 03:05:38;;;;;;;11.32;7.15;;;14.30;98.60;;;;;;5004585;28;20137;-67
2021/08/30 03:08:05;;;;;;;8.65;6.32;;;14.30;98.70;;;;;;5011629;28;20050;-69
2021/08/30 03:10:31;;;;;;;7.82;5.78;;;14.40;98.70;;;;;;5019522;28;20033;-68
2021/08/30 03:13:02;;;;;;;7.72;5.82;;;14.40;98.70;;;;;;5033717;28;20029;-67
2021/08/30 03:15:30;;;;;;;6.88;5.00;;;14.40;98.80;;;;;;5015339;28;20168;-70
2021/08/30 03:17:58;;;;;;;6.32;4.10;;;14.40;98.80;;;;;;5033874;28;20389;-67
2021/08/30 03:20:27;;;;;;;4.45;3.28;;;14.40;98.80;;;;;;5024150;28;20018;-68
2021/08/30 03:22:56;;;;;;;4.25;3.45;;;14.40;99.00;;;;;;5013893;28;20097;-70
2021/08/30 03:25:33;;;;;;;4.22;3.17;;;14.40;98.80;;;;;;5013781;28;20356;-67
2021/08/30 03:28:00;;;;;;;4.10;3.15;;;14.40;98.90;;;;;;5013748;28;20048;-69
2021/08/30 03:30:26;;;;;;;3.92;3.40;;;14.40;98.90;;;;;;5018222;28;20033;-67
2021/08/30 03:32:52;;;;;;;4.45;3.60;;;14.40;98.90;;;;;;5013768;28;20025;-67
2021/08/30 03:35:20;;;;;;;7.32;4.68;;;14.40;98.90;;;;;;5013256;28;20030;-68
2021/08/30 03:37:46;;;;;;;8.32;5.07;;;14.40;98.90;;;;;;5023213;28;20415;-67
2021/08/30 03:40:14;;;;;;;6.80;5.03;;;14.50;98.90;;;;;;5033392;28;20075;-67
2021/08/30 03:42:41;;;;;;;6.50;4.68;;;14.50;98.90;;;;;;5036941;28;20481;-67
2021/08/30 03:45:08;;;;;;;6.43;4.90;;;14.50;98.90;;;;;;5052103;28;20124;-69
2021/08/30 03:47:35;;;;;;;6.05;4.47;;;14.50;98.90;;;;;;5009205;28;20370;-67
2021/08/30 03:50:02;;;;;;;6.10;4.75;;;14.50;98.90;;;;;;5031750;28;20026;-67
2021/08/30 03:52:30;;;;;;;5.57;4.57;;;14.50;98.90;;;;;;5031943;28;20033;-67
2021/08/30 03:54:56;;;;;;;5.00;4.28;;;14.50;98.90;;;;;;5031418;28;20101;-68
2021/08/30 03:57:22;;;;;;;5.38;3.70;;;14.50;98.90;;;;;;5031950;28;20097;-68
2021/08/30 03:59:53;;;;;;;4.63;3.58;;;14.50;98.90;;;;;;5031898;28;20048;-77
2021/08/30 04:02:20;;;;;;;4.40;3.38;;;14.50;98.90;;;;;;5016485;28;20129;-68
2021/08/30 04:04:47;;;;;;;4.50;3.10;;;14.50;98.80;;;;;;5012583;28;20034;-68
2021/08/30 04:07:13;;;;;;;4.32;3.15;;;14.50;98.90;;;;;;5026315;28;20087;-66
2021/08/30 04:09:39;;;;;;;3.25;2.67;;;14.50;98.80;;;;;;5031717;28;20034;-66
2021/08/30 04:12:05;;;;;;;3.88;3.10;;;14.50;98.90;;;;;;5016990;28;20041;-69
2021/08/30 04:14:31;;;;;;;3.50;2.78;;;14.50;98.90;;;;;;5011335;28;20029;-67
2021/08/30 04:16:57;;;;;;;3.85;2.92;;;14.50;98.90;;;;;;5024053;28;20105;-67
2021/08/30 04:19:22;;;;;;;2.70;2.50;;;14.50;99.00;;;;;;5029047;28;20133;-67
2021/08/30 04:21:48;;;;;;;4.20;2.80;;;14.50;99.00;;;;;;5031698;28;20026;-67
2021/08/30 04:24:14;;;;;;;3.33;2.58;;;14.50;98.90;;;;;;5029613;28;20545;-72
2021/08/30 04:26:40;;;;;;;3.42;2.50;;;14.50;98.90;;;;;;5011579;28;20018;-66
2021/08/30 04:29:06;;;;;;;2.97;2.53;;;14.50;98.90;;;;;;5011710;28;20025;-68
2021/08/30 04:31:32;;;;;;;2.70;2.45;;;14.50;98.90;;;;;;5011471;28;20026;-68
2021/08/30 04:33:57;;;;;;;3.10;2.60;;;14.50;99.00;;;;;;5022549;28;20029;-67
2021/08/30 04:36:23;;;;;;;3.65;2.72;;;14.50;99.00;;;;;;5010976;28;20029;-68
2021/08/30 04:38:49;;;;;;;4.32;2.90;;;14.50;99.00;;;;;;5011590;28;20062;-67
2021/08/30 04:41:16;;;;;;;2.85;2.55;;;14.50;99.00;;;;;;5010107;28;20034;-67
2021/08/30 04:43:42;;;;;;;3.58;2.95;;;14.50;99.00;;;;;;5003449;28;20409;-67
2021/08/30 04:46:08;;;;;;;3.67;3.20;;;14.50;99.00;;;;;;4972883;28;1071722;-69
2021/08/30 04:48:34;;;;;;;4.28;3.38;;;14.50;99.00;;;;;;5032279;28;20033;-67
2021/08/30 04:51:00;;;;;;;5.00;3.88;;;14.50;99.00;;;;;;5031662;28;20053;-66
2021/08/30 04:53:25;;;;;;;4.10;3.63;;;14.50;99.00;;;;;;5031246;28;20030;-67
2021/08/30 04:55:51;;;;;;;4.07;3.67;;;14.50;99.00;;;;;;5031677;28;20033;-67
2021/08/30 04:58:17;;;;;;;6.45;3.72;;;14.50;99.00;;;;;;5031586;28;20029;-70
2021/08/30 05:00:42;;;;;;;4.75;4.25;;;14.60;99.00;;;;;;5032165;28;20025;-66
2021/08/30 05:03:08;;;;;;;5.30;3.75;;;14.60;99.00;;;;;;5031511;28;20539;-66
2021/08/30 05:05:34;;;;;;;5.45;4.30;;;14.60;99.00;;;;;;5013916;28;20036;-67
2021/08/30 05:07:59;;;;;;;5.30;4.65;;;14.60;99.00;;;;;;5014060;28;20113;-68
2021/08/30 05:10:25;;;;;;;5.88;4.68;;;14.60;99.00;;;;;;5012100;28;20024;-66
2021/08/30 05:12:50;;;;;;;6.25;4.47;;;14.60;99.00;;;;;;5027345;28;20061;-66
2021/08/30 05:15:16;;;;;;;5.80;4.47;;;14.60;99.00;;;;;;5030984;28;20474;-66
2021/08/30 05:17:41;;;;;;;6.00;4.60;;;14.60;99.00;;;;;;5036229;28;20033;-69
2021/08/30 05:20:07;;;;;;;7.45;5.10;;;14.60;99.00;;;;;;5013896;28;20018;-66
2021/08/30 05:22:33;;;;;;;7.22;4.78;;;14.60;99.00;;;;;;5018960;28;20696;-67
2021/08/30 05:24:59;;;;;;;7.00;5.07;;;14.60;99.00;;;;;;5011264;28;20057;-67
2021/08/30 05:27:24;;;;;;;7.65;4.68;;;14.60;99.00;;;;;;5029503;28;20466;-66
2021/08/30 05:29:50;;;;;;;6.60;5.00;;;14.60;99.00;;;;;;5017178;28;20418;-67
2021/08/30 05:32:16;;;;;;;7.45;4.65;;;14.60;99.00;;;;;;5011383;28;20030;-69
2021/08/30 05:34:41;;;;;;;6.28;5.18;;;14.60;99.00;;;;;;5021540;28;20040;-71
2021/08/30 05:37:08;;;;;;;6.93;5.32;;;14.60;99.00;;;;;;5031397;28;20063;-67
2021/08/30 05:39:33;;;;;;;6.32;4.85;;;14.60;99.20;;;;;;5021653;28;20491;-67
2021/08/30 05:41:59;;;;;;;6.25;4.88;;;14.60;99.00;;;;;;5016173;28;20055;-68
2021/08/30 05:44:24;;;;;;;7.13;5.30;;;14.60;99.00;;;;;;5030961;28;20096;-70
2021/08/30 05:46:51;;;;;;;6.75;5.35;;;14.60;99.00;;;;;;5030538;28;20120;-69
2021/08/30 05:49:17;;;;;;;9.23;4.85;;;14.70;99.00;;;;;;5029232;28;20029;-67
2021/08/30 05:51:43;;;;;;;7.00;5.28;;;14.60;99.00;;;;;;5031230;28;20033;-67
2021/08/30 05:54:10;;;;;;;7.28;5.32;;;14.70;99.00;;;;;;5030653;28;20030;-68
2021/08/30 05:56:35;;;;;;;6.50;5.13;;;14.70;99.00;;;;;;5020766;28;20022;-67
2021/08/30 05:59:01;;;;;;;8.50;5.68;;;14.70;99.00;;;;;;5016316;28;20035;-67
2021/08/30 06:01:26;;;;;;;7.50;5.30;;;14.70;99.00;;;;;;5049166;28;20489;-71
2021/08/30 06:03:52;;;;;;;8.20;5.50;;;14.70;99.00;;;;;;5034917;28;20076;-68
2021/08/30 06:06:17;;;;;;;7.35;5.07;;;14.70;99.00;;;;;;5020309;28;20026;-67
2021/08/30 06:08:43;;;;;;;6.78;5.03;;;14.70;99.00;;;;;;5013166;28;20029;-67
2021/08/30 06:11:08;;;;;;;8.45;5.63;;;14.70;99.00;;;;;;5012180;28;20092;-71
2021/08/30 06:13:34;;;;;;;7.10;5.25;;;14.80;99.00;;;;;;5017756;28;20059;-69
2021/08/30 06:16:00;;;;;;;7.65;5.60;;;14.80;99.00;;;;;;5028588;28;20017;-67
2021/08/30 06:18:26;;;;;;;8.32;5.70;;;14.80;98.90;;;;;;5030526;28;20096;-67
2021/08/30 06:20:52;;;;;;;7.53;5.85;;;14.70;99.10;;;;;;5010958;28;20490;-68
2021/08/30 06:23:18;;;;;;;6.22;4.97;;;14.80;98.90;;;;;;5011046;28;20037;-68
2021/08/30 06:25:44;;;;;;;6.30;5.10;;;14.80;98.90;;;;;;5015985;28;20072;-68
2021/08/30 06:28:09;;;;;;;5.45;4.72;;;14.80;98.90;;;;;;5029796;28;20056;-68
2021/08/30 06:30:35;;;;;;;7.10;5.28;;;14.80;98.90;;;;;;5019243;28;20045;-71
2021/08/30 06:33:01;;;;;;;8.93;5.68;;;14.80;98.90;;;;;;5010952;28;20026;-71
2021/08/30 06:35:27;;;;;;;6.72;4.95;;;14.80;98.90;;;;;;5018973;28;20029;-67
2021/08/30 06:37:52;;;;;;;8.23;5.43;;;14.80;98.90;;;;;;5030346;28;20643;-68
2021/08/30 06:40:20;;;;;;;6.70;5.47;;;14.80;98.90;;;;;;5017169;28;20066;-67
2021/08/30 06:42:46;;;;;;;6.75;5.13;;;14.80;98.90;;;;;;5011568;28;20101;-70
2021/08/30 06:45:12;;;;;;;7.90;5.40;;;14.80;98.90;;;;;;5028800;28;20117;-71
2021/08/30 06:47:37;;;;;;;6.88;5.93;;;14.90;98.90;;;;;;5041476;28;20025;-71
2021/08/30 06:50:04;;;;;;;10.50;6.22;;;14.90;98.90;;;;;;5020909;28;20045;-67
2021/08/30 06:52:30;;;;;;;9.55;6.65;;;14.90;98.80;;;;;;4998245;28;20482;-68
2021/08/30 06:54:56;;;;;;;8.43;6.07;;;14.90;98.80;;;;;;5023102;28;20035;-71
2021/08/30 06:57:21;;;;;;;6.43;5.40;;;14.90;98.90;;;;;;5019589;28;20469;-67
2021/08/30 06:59:47;;;;;;;7.95;6.30;;;14.90;98.90;;;;;;5025874;28;20029;-77
2021/08/30 07:02:12;;;;;;;9.98;6.68;;;15.00;98.90;;;;;;5016901;28;20021;-78
2021/08/30 07:04:38;;;;;;;12.00;6.78;;;15.00;98.90;;;;;;5018085;28;20104;-82
2021/08/30 07:07:04;;;;;;;9.25;7.50;;;15.00;98.80;;;;;;5015583;28;20032;-67
2021/08/30 07:09:29;;;;;;;11.88;6.60;;;15.10;98.90;;;;;;5054177;28;20025;-68
2021/08/30 07:11:55;;;;;;;9.27;7.10;;;15.20;98.90;;;;;;5035255;28;20056;-68
2021/08/30 07:14:21;;;;;;;10.00;6.93;;;15.30;98.90;;;;;;5016632;28;20036;-68
2021/08/30 07:16:46;;;;;;;8.70;6.78;;;15.30;98.80;;;;;;5032233;28;20037;-71
2021/08/30 07:19:12;;;;;;;10.38;7.22;;;15.40;98.80;;;;;;5029196;28;20537;-68
2021/08/30 07:21:38;;;;;;;11.55;7.13;;;15.30;98.70;;;;;;5033600;28;20397;-68
2021/08/30 07:24:03;;;;;;;10.85;6.95;;;15.40;98.70;;;;;;5011062;28;20052;-68
2021/08/30 07:26:29;;;;;;;10.27;6.40;;;15.30;98.70;;;;;;5017205;28;20037;-69
2021/08/30 07:28:55;;;;;;;8.30;6.28;;;15.40;98.70;;;;;;5030241;28;20113;-71
2021/08/30 07:31:21;;;;;;;7.90;6.25;;;15.40;98.70;;;;;;5030998;28;20096;-67
2021/08/30 07:33:47;;;;;;;65.65;47.38;;;15.40;98.70;;;;;;5020522;28;20026;-67
2021/08/30 07:36:12;;;;;;;13.18;8.25;;;15.40;98.70;;;;;;5032522;28;20366;-68
2021/08/30 07:38:39;;;;;;;8.40;6.25;;;15.40;98.70;;;;;;5027933;28;20021;-68
2021/08/30 07:41:05;;;;;;;8.52;6.53;;;15.40;98.70;;;;;;5032297;28;20025;-70
2021/08/30 07:43:30;;;;;;;8.65;6.30;;;15.40;98.70;;;;;;5014962;28;20402;-68
2021/08/30 07:45:59;;;;;;;9.18;6.50;;;15.40;98.80;;;;;;5052115;22;20047;-67
2021/08/30 07:48:24;;;;;;;7.30;5.45;;;15.40;98.60;;;;;;5072915;28;20017;-68
2021/08/30 07:50:50;;;;;;;7.68;5.45;;;15.40;98.60;;;;;;5087190;28;20483;-67
2021/08/30 07:53:15;;;;;;;6.85;5.97;;;15.40;98.80;;;;;;5093511;28;20059;-72
2021/08/30 07:55:41;;;;;;;7.60;5.88;;;15.50;98.70;;;;;;5079053;28;20090;-69
2021/08/30 07:58:07;;;;;;;6.32;5.30;;;15.50;98.70;;;;;;5073415;28;20013;-67
2021/08/30 08:00:33;;;;;;;7.82;5.40;;;15.50;98.60;;;;;;5072853;28;20052;-67
2021/08/30 08:02:58;;;;;;;6.90;5.25;;;15.60;98.60;;;;;;5073420;28;20048;-67
2021/08/30 08:05:24;;;;;;;6.45;5.22;;;15.70;98.50;;;;;;5071553;28;20029;-69
2021/08/30 08:07:50;;;;;;;11.57;6.68;;;15.70;98.50;;;;;;5073232;28;20033;-68
2021/08/30 08:10:16;;;;;;;4.93;4.05;;;15.90;98.60;;;;;;5073211;28;20083;-69
2021/08/30 08:12:42;;;;;;;3.90;3.47;;;16.00;98.30;;;;;;5073225;28;20028;-73
2021/08/30 08:15:08;;;;;;;4.50;3.95;;;16.10;98.30;;;;;;5072310;28;20016;-66
2021/08/30 08:17:34;;;;;;;4.15;3.42;;;16.10;98.20;;;;;;5083957;28;20082;-73
2021/08/30 08:20:01;;;;;;;4.60;3.85;;;16.20;98.20;;;;;;5065816;28;20029;-73
2021/08/30 08:22:30;;;;;;;4.20;3.38;;;16.40;98.00;;;;;;5072871;28;20033;-69
2021/08/30 08:24:57;;;;;;;3.67;3.10;;;16.50;98.00;;;;;;5072076;28;20476;-65
2021/08/30 08:27:23;;;;;;;3.53;3.20;;;16.50;97.90;;;;;;5077680;28;20107;-66
2021/08/30 08:29:49;;;;;;;4.95;3.15;;;16.60;97.90;;;;;;5072673;28;20064;-67
2021/08/30 08:32:14;;;;;;;4.55;3.20;;;16.60;97.80;;;;;;5054635;28;20031;-71
2021/08/30 08:34:40;;;;;;;2.95;2.70;;;16.60;97.70;;;;;;5071796;28;20027;-66
2021/08/30 08:37:05;;;;;;;3.28;2.95;;;16.70;97.70;;;;;;5072708;28;20020;-66
2021/08/30 08:39:31;;;;;;;3.05;2.60;;;16.60;97.60;;;;;;5072103;28;20468;-67
2021/08/30 08:41:56;;;;;;;4.65;3.15;;;16.60;97.60;;;;;;5054697;28;20052;-71
2021/08/30 08:44:22;;;;;;;3.60;3.30;;;16.60;97.60;;;;;;5072283;28;20032;-66
2021/08/30 08:46:48;;;;;;;4.40;3.42;;;16.60;97.60;;;;;;5071202;28;20094;-65
2021/08/30 08:49:14;;;;;;;4.82;3.15;;;16.50;97.60;;;;;;5071927;28;20491;-67
2021/08/30 08:51:39;;;;;;;6.53;3.10;;;16.50;97.50;;;;;;5072283;28;20082;-65
2021/08/30 08:54:08;;;;;;;3.13;2.83;;;16.50;97.50;;;;;;5072226;28;20028;-68
2021/08/30 08:56:34;;;;;;;3.33;2.55;;;16.70;97.60;;;;;;5053203;28;20028;-65
2021/08/30 08:59:00;;;;;;;4.05;3.03;;;17.00;97.60;;;;;;5053929;28;20021;-66
2021/08/30 09:01:27;;;;;;;3.63;3.25;;;17.10;97.50;;;;;;5053968;28;20028;-67
2021/08/30 09:03:58;;;;;;;4.80;3.20;;;17.10;97.40;;;;;;5071948;28;20040;-70
2021/08/30 09:06:28;;;;;;;3.83;3.22;;;17.10;97.30;;;;;;5070297;28;20070;-71
2021/08/30 09:09:00;;;;;;;6.38;3.33;;;17.30;97.30;;;;;;5071618;28;20031;-65
2021/08/30 09:11:35;;;;;;;3.38;3.08;;;17.60;97.20;;;;;;5071780;28;20021;-65
2021/08/30 09:14:00;;;;;;;3.80;3.20;;;17.80;97.20;;;;;;5071907;28;20103;-65
2021/08/30 09:16:26;;;;;;;3.85;3.10;;;18.10;97.20;;;;;;5070411;28;20154;-65
2021/08/30 09:19:09;;;;;;;3.00;2.70;;;18.40;97.10;;;;;;5070833;28;20025;-66
2021/08/30 09:21:39;;;;;;;6.00;3.30;;;18.40;96.70;;;;;;5071867;28;20043;-66
2021/08/30 09:24:19;;;;;;;4.47;3.30;;;18.40;96.70;;;;;;5071287;28;20477;-65
2021/08/30 09:26:49;;;;;;;7.85;3.38;;;18.40;96.50;;;;;;5067441;28;20028;-65
2021/08/30 09:29:18;;;;;;;5.72;3.42;;;18.30;96.30;;;;;;5071161;28;20016;-65
2021/08/30 09:31:54;;;;;;;3.63;3.28;;;18.10;96.20;;;;;;5071421;28;20025;-65
2021/08/30 09:34:19;;;;;;;3.67;3.00;;;18.00;96.10;;;;;;5071050;28;20024;-65
2021/08/30 09:36:46;;;;;;;5.25;3.67;;;17.90;96.20;;;;;;5070516;28;20491;-64
2021/08/30 09:39:14;;;;;;;4.70;3.72;;;17.80;96.20;;;;;;5070971;28;20012;-65
2021/08/30 09:41:43;;;;;;;4.30;3.38;;;17.70;96.20;;;;;;5071631;28;20036;-70
2021/08/30 09:44:10;;;;;;;3.40;3.10;;;17.60;96.20;;;;;;5071121;28;20095;-68
2021/08/30 09:46:35;;;;;;;4.40;2.88;;;17.70;96.20;;;;;;5069464;28;20032;-65
2021/08/30 09:49:05;;;;;;;3.55;3.20;;;17.80;96.40;;;;;;5086066;28;20502;-65
2021/08/30 09:51:36;;;;;;;3.90;3.05;;;18.00;96.50;;;;;;5091255;28;20054;-67
2021/08/30 09:54:02;;;;;;;2.90;2.70;;;18.20;96.50;;;;;;5048334;28;20064;-66
2021/08/30 09:56:27;;;;;;;2.65;2.45;;;18.30;96.40;;;;;;5040045;28;20040;-67
2021/08/30 09:58:54;;;;;;;2.67;2.47;;;18.30;96.20;;;;;;5066665;28;20028;-65
2021/08/30 10:01:20;;;;;;;3.47;2.05;;;18.30;95.90;;;;;;5071028;28;20392;-65
2021/08/30 10:03:46;;;;;;;1.95;1.85;;;18.30;95.70;;;;;;5070818;28;20020;-65
2021/08/30 10:06:12;;;;;;;3.22;2.40;;;18.30;95.70;;;;;;5070161;28;20025;-66
2021/08/30 10:08:38;;;;;;;3.92;2.13;;;18.20;95.60;;;;;;5070226;28;20032;-66
2021/08/30 10:11:04;;;;;;;8.05;6.80;;;18.10;95.50;;;;;;5065318;28;20028;-67
2021/08/30 10:13:29;;;;;;;2.88;2.33;;;18.10;95.50;;;;;;5070768;28;20027;-67
2021/08/30 10:15:55;;;;;;;2.20;2.00;;;18.10;95.50;;;;;;5065756;28;20039;-69
2021/08/30 10:18:21;;;;;;;1.92;1.80;;;18.00;95.40;;;;;;5070178;28;20027;-70
2021/08/30 10:20:50;;;;;;;3.42;2.10;;;18.00;95.40;;;;;;5070936;28;20105;-66
2021/08/30 10:23:17;;;;;;;2.35;2.15;;;18.00;95.40;;;;;;5070754;28;20111;-69
2021/08/30 10:25:58;;;;;;;3.97;2.17;;;18.00;95.40;;;;;;5069576;28;20029;-65
2021/08/30 10:28:35;;;;;;;3.67;2.30;;;18.00;95.40;;;;;;5052693;28;20040;-66
2021/08/30 10:31:01;;;;;;;2.13;1.98;;;18.10;95.50;;;;;;5069721;28;20024;-65
2021/08/30 10:33:35;;;;;;;2.20;2.00;;;18.40;95.70;;;;;;5070801;28;20021;-65
2021/08/30 10:36:14;;;;;;;2.10;1.90;;;18.60;95.50;;;;;;5069660;28;20029;-67
2021/08/30 10:38:40;;;;;;;2.70;2.10;;;18.80;95.20;;;;;;5070320;28;20547;-71
2021/08/30 10:41:18;;;;;;;2.10;1.90;;;18.90;95.10;;;;;;5070701;28;20032;-70
2021/08/30 10:43:45;;;;;;;1.70;1.60;;;19.00;94.70;;;;;;5070521;28;20100;-67
2021/08/30 10:46:17;;;;;;;1.60;1.50;;;19.00;94.70;;;;;;5069501;28;20040;-66
2021/08/30 10:48:50;;;;;;;1.45;1.35;;;19.10;94.60;;;;;;5062456;28;20029;-66
2021/08/30 10:51:24;;;;;;;1.67;1.58;;;19.00;94.50;;;;;;5032707;28;20555;-71
2021/08/30 10:53:57;;;;;;;1.73;1.63;;;18.90;94.50;;;;;;5063451;28;20498;-70
2021/08/30 10:56:25;;;;;;;1.65;1.40;;;18.80;94.30;;;;;;5069713;28;20035;-65
2021/08/30 10:58:51;;;;;;;1.52;1.42;;;18.80;94.40;;;;;;5051790;28;20056;-66
2021/08/30 11:01:16;;;;;;;1.88;1.20;;;18.70;94.40;;;;;;5070282;28;20052;-67
2021/08/30 11:03:42;;;;;;;1.85;1.38;;;18.80;94.30;;;;;;5053758;28;20037;-66
2021/08/30 11:06:10;;;;;;;1.10;1.10;;;18.80;94.40;;;;;;5069469;28;20040;-65
2021/08/30 11:08:39;;;;;;;3.17;1.13;;;18.80;94.30;;;;;;5052187;28;20031;-65
2021/08/30 11:11:24;;;;;;;3.13;1.25;;;18.80;94.10;;;;;;5052112;28;20025;-66
2021/08/30 11:14:10;;;;;;;7.72;5.28;;;18.90;94.10;;;;;;5061515;28;20078;-65
2021/08/30 11:16:39;;;;;;;3.47;1.63;;;19.00;93.90;;;;;;5068557;28;20038;-67
2021/08/30 11:19:06;;;;;;;1.40;1.23;;;19.20;93.90;;;;;;5070014;28;20396;-69
2021/08/30 11:21:50;;;;;;;1.25;1.25;;;19.30;94.00;;;;;;5070324;28;20031;-65
2021/08/30 11:24:28;;;;;;;1.02;1.00;;;19.30;93.90;;;;;;5069988;28;20074;-66
2021/08/30 11:26:56;;;;;;;1.50;1.20;;;19.40;93.60;;;;;;5069470;28;20024;-66
2021/08/30 11:29:22;;;;;;;1.30;1.20;;;19.40;93.60;;;;;;5071767;28;20024;-66
2021/08/30 11:31:49;;;;;;;1.52;1.42;;;19.30;93.40;;;;;;5065441;28;20024;-65
2021/08/30 11:34:24;;;;;;;1.70;1.60;;;19.40;93.40;;;;;;5055874;28;20036;-66
2021/08/30 11:36:50;;;;;;;1.35;1.25;;;19.60;93.50;;;;;;5072662;28;20044;-70
2021/08/30 11:39:17;;;;;;;1.20;1.10;;;19.60;93.50;;;;;;5073696;28;20388;-66
2021/08/30 11:41:45;;;;;;;1.30;1.20;;;19.70;93.30;;;;;;5073764;28;20433;-65
2021/08/30 11:44:13;;;;;;;3.30;1.30;;;19.70;93.20;;;;;;5073731;28;20699;-65
2021/08/30 11:46:46;;;;;;;1.17;1.00;;;19.70;93.10;;;;;;5072114;28;20052;-67
2021/08/30 11:49:12;;;;;;;1.23;1.13;;;19.70;92.80;;;;;;5072393;28;20377;-71
2021/08/30 11:51:42;;;;;;;2.17;1.30;;;19.60;92.90;;;;;;5055143;28;20036;-66
2021/08/30 11:54:16;;;;;;;1.98;1.20;;;19.50;92.90;;;;;;5073125;28;20024;-65
2021/08/30 11:56:50;;;;;;;1.00;1.00;;;19.50;92.80;;;;;;5054489;28;20097;-67
2021/08/30 11:59:27;;;;;;;1.05;1.05;;;19.40;92.70;;;;;;5073215;28;20020;-66
2021/08/30 12:01:53;;;;;;;1.10;1.00;;;19.40;92.80;;;;;;5073273;28;20020;-66
2021/08/30 12:04:19;;;;;;;1.17;1.10;;;19.30;92.80;;;;;;5073356;28;20025;-65
2021/08/30 12:06:54;;;;;;;1.40;1.30;;;19.30;92.80;;;;;;5062781;28;20103;-66
2021/08/30 12:09:20;;;;;;;1.20;1.10;;;19.40;92.70;;;;;;5073071;28;20078;-65
2021/08/30 12:11:52;;;;;;;1.65;1.10;;;19.30;92.60;;;;;;5072389;28;20039;-66
2021/08/30 12:14:20;;;;;;;15.18;11.55;;;19.30;92.50;;;;;;5072751;28;20483;-65
2021/08/30 12:16:47;;;;;;;1.45;1.35;;;19.10;92.60;;;;;;5072053;28;20082;-66
2021/08/30 12:19:13;;;;;;;1.52;1.42;;;19.10;92.60;;;;;;5072939;28;20027;-66
2021/08/30 12:21:40;;;;;;;1.30;1.20;;;18.90;92.80;;;;;;5055184;28;20028;-66
2021/08/30 12:24:17;;;;;;;1.35;1.17;;;18.90;93.00;;;;;;5073049;28;20040;-66
2021/08/30 12:26:47;;;;;;;1.38;1.10;;;18.90;93.10;;;;;;5053363;28;20028;-67
2021/08/30 12:29:12;;;;;;;3.30;1.20;;;18.90;93.20;;;;;;5072757;28;20044;-70
2021/08/30 12:31:38;;;;;;;1.50;1.25;;;18.90;93.10;;;;;;5072743;28;20511;-65
2021/08/30 12:34:12;;;;;;;1.10;1.00;;;18.90;93.10;;;;;;5054413;28;20017;-65
2021/08/30 12:36:38;;;;;;;1.10;1.05;;;19.00;93.20;;;;;;5053084;28;20048;-65
2021/08/30 12:39:05;;;;;;;1.35;1.10;;;19.00;93.20;;;;;;5072264;28;20024;-68
2021/08/30 12:41:32;;;;;;;1.23;1.13;;;19.10;93.20;;;;;;5071597;28;20528;-68
2021/08/30 12:43:58;;;;;;;2.83;1.40;;;19.10;93.30;;;;;;5054504;28;20040;-65
2021/08/30 12:46:23;;;;;;;1.20;1.10;;;19.10;93.20;;;;;;5058987;28;20040;-71
2021/08/30 12:48:50;;;;;;;1.45;1.27;;;19.10;93.10;;;;;;5072262;28;20500;-69
2021/08/30 12:51:16;;;;;;;1.25;1.15;;;19.10;93.10;;;;;;5071939;28;20081;-69